Time;durP1;ratioP1;P1;durP2;ratioP2;P2;SDS_P1;SDS_P2;PMS_P1;PMS_P2;Temp;Humidity;BMP_temperature;BMP_pressure;BME280_temperature;BME280_humidity;BME280_pressure;Samples;Min_cycle;Max_cycle;Signal;HPM_P1;HPM_P2
2022/10/13 00:00:47;;;;;;;19.95;14.63;;;;;;;;;;5082686;28;20020;-71
2022/10/13 00:03:13;;;;;;;20.08;13.77;;;;;;;;;;5085503;28;20048;-71
2022/10/13 00:05:42;;;;;;;23.25;14.15;;;;;;;;;;5084996;28;20025;-71
2022/10/13 00:08:09;;;;;;;19.48;13.60;;;;;;;;;;5086853;28;20027;-72
2022/10/13 00:10:39;;;;;;;20.90;13.63;;;;;;;;;;5085616;28;20024;-71
2022/10/13 00:13:05;;;;;;;;;;;;;;;;;;5086566;28;20485;-72
2022/10/13 00:15:31;;;;;;;18.27;13.68;;;;;;;;;;5082822;28;19939;-71
2022/10/13 00:17:57;;;;;;;22.52;14.95;;;;;;;;;;5084710;28;20031;-71
2022/10/13 00:20:23;;;;;;;24.33;15.57;;;;;;;;;;5087336;28;20024;-71
2022/10/13 00:22:49;;;;;;;23.63;14.90;;;;;;;;;;5092838;28;20034;-71
2022/10/13 00:25:15;;;;;;;31.58;18.45;;;;;;;;;;5092174;28;20020;-71
2022/10/13 00:27:41;;;;;;;36.40;18.85;;;;;;;;;;5092639;28;20035;-71
2022/10/13 00:30:07;;;;;;;28.88;19.05;;;;;;;;;;5087397;28;20384;-72
2022/10/13 00:32:33;;;;;;;34.17;19.30;;;;;;;;;;5092542;28;20020;-71
2022/10/13 00:34:59;;;;;;;30.75;19.90;;;;;;;;;;5093109;28;20024;-71
2022/10/13 00:37:25;;;;;;;35.10;21.88;;;;;;;;;;5091840;28;20880;-71
2022/10/13 00:39:51;;;;;;;30.00;19.65;;;;;;;;;;5092493;28;20028;-71
2022/10/13 00:42:17;;;;;;;36.85;21.73;;;;;;;;;;5091387;28;20039;-71
2022/10/13 00:45:12;;;;;;;30.50;18.73;;;;;;;;;;5074379;28;20024;-71
2022/10/13 00:47:40;;;;;;;32.92;19.23;;;;;;;;;;5069044;28;20032;-71
2022/10/13 00:50:09;;;;;;;30.25;19.17;;;;;;;;;;5091556;28;20059;-72
2022/10/13 00:52:36;;;;;;;36.63;20.70;;;;;;;;;;5092326;28;20016;-71
2022/10/13 00:55:03;;;;;;;33.70;20.77;;;;;;;;;;5092036;28;20073;-70
2022/10/13 00:57:29;;;;;;;36.78;20.63;;;;;;;;;;5091048;28;20579;-70
2022/10/13 00:59:55;;;;;;;35.50;20.80;;;;;;;;;;5092488;28;20542;-70
2022/10/13 01:02:22;;;;;;;38.75;21.23;;;;;;;;;;5076609;28;20378;-70
2022/10/13 01:04:48;;;;;;;41.67;23.88;;;;;;;;;;5090908;28;20027;-70
2022/10/13 01:07:16;;;;;;;39.10;21.02;;;;;;;;;;5091020;28;20044;-70
2022/10/13 01:09:42;;;;;;;30.98;19.65;;;;;;;;;;5092435;28;20032;-71
2022/10/13 01:12:10;;;;;;;31.88;19.40;;;;;;;;;;5091387;28;20101;-71
2022/10/13 01:14:41;;;;;;;31.00;18.98;;;;;;;;;;5092162;28;20465;-70
2022/10/13 01:17:17;;;;;;;35.45;19.17;;;;;;;;;;5091386;28;20028;-72
2022/10/13 01:19:43;;;;;;;34.03;19.95;;;;;;;;;;5078126;28;20365;-70
2022/10/13 01:22:18;;;;;;;36.58;21.83;;;;;;;;;;5091040;28;20039;-71
2022/10/13 01:24:46;;;;;;;36.45;21.25;;;;;;;;;;5089846;28;20358;-69
2022/10/13 01:27:18;;;;;;;25.77;17.77;;;;;;;;;;5072774;28;20023;-70
2022/10/13 01:29:47;;;;;;;29.17;17.85;;;;;;;;;;5081249;28;20035;-70
2022/10/13 01:32:36;;;;;;;39.10;21.80;;;;;;;;;;5090844;28;20042;-70
2022/10/13 01:35:08;;;;;;;35.55;19.45;;;;;;;;;;5092154;28;20067;-70
2022/10/13 01:37:40;;;;;;;32.92;19.63;;;;;;;;;;5091311;28;20103;-71
2022/10/13 01:40:11;;;;;;;37.95;21.58;;;;;;;;;;5091386;28;20692;-71
2022/10/13 01:42:53;;;;;;;39.35;20.73;;;;;;;;;;5092044;28;20097;-70
2022/10/13 01:45:21;;;;;;;32.17;19.05;;;;;;;;;;5090222;28;20035;-70
2022/10/13 01:47:47;;;;;;;48.53;21.52;;;;;;;;;;5091657;28;20032;-71
2022/10/13 01:50:15;;;;;;;40.58;22.98;;;;;;;;;;5090538;28;20032;-71
2022/10/13 01:52:41;;;;;;;45.90;22.98;;;;;;;;;;5091003;28;20032;-70
2022/10/13 01:55:09;;;;;;;39.60;22.25;;;;;;;;;;5091192;28;20048;-72
2022/10/13 01:57:36;;;;;;;38.38;19.90;;;;;;;;;;5091157;28;20028;-70
2022/10/13 02:00:07;;;;;;;36.03;22.67;;;;;;;;;;5090421;28;20484;-70
2022/10/13 02:02:39;;;;;;;40.22;22.67;;;;;;;;;;5091345;28;20050;-71
2022/10/13 02:05:24;;;;;;;41.97;21.33;;;;;;;;;;5073369;28;20031;-71
2022/10/13 02:07:55;;;;;;;35.33;22.15;;;;;;;;;;5091238;28;20036;-71
2022/10/13 02:10:48;;;;;;;44.78;23.33;;;;;;;;;;5089979;28;20473;-71
2022/10/13 02:13:16;;;;;;;41.13;22.05;;;;;;;;;;5090007;28;20392;-72
2022/10/13 02:15:44;;;;;;;49.50;23.00;;;;;;;;;;5091059;28;20449;-71
2022/10/13 02:18:12;;;;;;;39.50;22.17;;;;;;;;;;5090343;28;20035;-70
2022/10/13 02:20:40;;;;;;;42.83;23.10;;;;;;;;;;5090938;28;20028;-70
2022/10/13 02:23:11;;;;;;;41.22;21.50;;;;;;;;;;5086875;28;20036;-72
2022/10/13 02:25:38;;;;;;;38.90;21.27;;;;;;;;;;5084856;28;20035;-70
2022/10/13 02:28:05;;;;;;;48.70;24.00;;;;;;;;;;5090542;28;20021;-70
2022/10/13 02:30:32;;;;;;;39.72;22.33;;;;;;;;;;5089851;28;20131;-71
2022/10/13 02:32:58;;;;;;;41.00;23.45;;;;;;;;;;5091187;28;20017;-71
2022/10/13 02:35:24;;;;;;;44.00;24.20;;;;;;;;;;5084493;28;20028;-71
2022/10/13 02:37:50;;;;;;;45.60;25.50;;;;;;;;;;5090464;28;20074;-70
2022/10/13 02:40:16;;;;;;;51.90;24.40;;;;;;;;;;5089510;28;20043;-71
2022/10/13 02:42:43;;;;;;;44.38;24.77;;;;;;;;;;5091307;28;20566;-70
2022/10/13 02:45:09;;;;;;;50.28;25.00;;;;;;;;;;5090528;28;20024;-72
2022/10/13 02:47:35;;;;;;;49.20;25.10;;;;;;;;;;5090497;28;20491;-70
2022/10/13 02:50:01;;;;;;;41.58;22.85;;;;;;;;;;5072776;28;20052;-70
2022/10/13 02:52:27;;;;;;;42.30;23.58;;;;;;;;;;5089019;28;20107;-69
2022/10/13 02:54:53;;;;;;;38.10;23.58;;;;;;;;;;5080289;28;20104;-70
2022/10/13 02:57:19;;;;;;;38.83;22.13;;;;;;;;;;5089598;28;20017;-70
2022/10/13 02:59:45;;;;;;;41.08;22.45;;;;;;;;;;5090762;28;20028;-70
2022/10/13 03:02:11;;;;;;;44.17;24.05;;;;;;;;;;5090029;28;20032;-71
2022/10/13 03:04:37;;;;;;;45.90;24.42;;;;;;;;;;5091049;28;20039;-70
2022/10/13 03:07:03;;;;;;;38.90;23.63;;;;;;;;;;5090173;28;20020;-70
2022/10/13 03:09:29;;;;;;;38.92;22.42;;;;;;;;;;5090005;28;20460;-69
2022/10/13 03:11:55;;;;;;;34.60;21.75;;;;;;;;;;5086079;28;20072;-70
2022/10/13 03:14:21;;;;;;;53.20;25.77;;;;;;;;;;5093675;28;20020;-70
2022/10/13 03:16:47;;;;;;;45.08;25.02;;;;;;;;;;5093440;28;20028;-70
2022/10/13 03:19:13;;;;;;;48.90;24.48;;;;;;;;;;5093752;28;20077;-70
2022/10/13 03:21:39;;;;;;;43.17;24.05;;;;;;;;;;5093482;28;20023;-70
2022/10/13 03:24:05;;;;;;;39.60;22.48;;;;;;;;;;5094472;28;20165;-70
2022/10/13 03:26:32;;;;;;;55.38;25.33;;;;;;;;;;5093521;28;20073;-70
2022/10/13 03:28:58;;;;;;;39.78;23.27;;;;;;;;;;5090691;28;20435;-70
2022/10/13 03:31:24;;;;;;;51.20;26.85;;;;;;;;;;5093002;28;20106;-70
2022/10/13 03:33:50;;;;;;;40.63;23.60;;;;;;;;;;5094491;28;20376;-70
2022/10/13 03:36:16;;;;;;;37.17;23.08;;;;;;;;;;5093049;28;20028;-70
2022/10/13 03:38:42;;;;;;;47.33;24.42;;;;;;;;;;5093728;28;20024;-71
2022/10/13 03:41:10;;;;;;;43.47;23.33;;;;;;;;;;5093604;28;20473;-72
2022/10/13 03:43:36;;;;;;;39.80;23.33;;;;;;;;;;5094180;28;20024;-70
2022/10/13 03:46:03;;;;;;;38.00;23.08;;;;;;;;;;5093925;28;20487;-70
2022/10/13 03:48:29;;;;;;;40.45;22.83;;;;;;;;;;5092547;28;20638;-72
2022/10/13 03:50:55;;;;;;;37.85;22.85;;;;;;;;;;5093222;28;20020;-71
2022/10/13 03:53:21;;;;;;;40.30;23.17;;;;;;;;;;5092836;28;20461;-71
2022/10/13 03:55:52;;;;;;;36.53;23.33;;;;;;;;;;5092621;28;20103;-71
2022/10/13 03:58:18;;;;;;;42.65;22.55;;;;;;;;;;5093376;28;20028;-71
2022/10/13 04:00:44;;;;;;;41.13;23.10;;;;;;;;;;5093637;28;20063;-71
2022/10/13 04:03:10;;;;;;;41.70;22.83;;;;;;;;;;5092675;28;20031;-71
2022/10/13 04:05:36;;;;;;;32.25;22.30;;;;;;;;;;5093086;28;20024;-70
2022/10/13 04:08:02;;;;;;;38.58;22.90;;;;;;;;;;5093511;28;20480;-71
2022/10/13 04:10:29;;;;;;;40.45;23.92;;;;;;;;;;5092224;28;20031;-70
2022/10/13 04:12:55;;;;;;;38.25;23.83;;;;;;;;;;5092975;28;20499;-71
2022/10/13 04:15:21;;;;;;;31.08;20.85;;;;;;;;;;5092329;28;20052;-70
2022/10/13 04:17:47;;;;;;;39.78;22.20;;;;;;;;;;5075535;28;20113;-71
2022/10/13 04:20:13;;;;;;;36.30;22.10;;;;;;;;;;5074097;28;20392;-71
2022/10/13 04:22:39;;;;;;;32.47;21.05;;;;;;;;;;5092574;28;20040;-71
2022/10/13 04:25:06;;;;;;;33.70;19.10;;;;;;;;;;5093652;28;20358;-71
2022/10/13 04:27:31;;;;;;;32.85;20.70;;;;;;;;;;5089625;28;20465;-71
2022/10/13 04:29:58;;;;;;;35.20;19.55;;;;;;;;;;5084559;28;20044;-70
2022/10/13 04:32:24;;;;;;;32.58;18.75;;;;;;;;;;5092259;28;20024;-71
2022/10/13 04:34:50;;;;;;;34.83;18.52;;;;;;;;;;5093220;28;20077;-70
2022/10/13 04:37:16;;;;;;;22.15;15.25;;;;;;;;;;5091956;28;20032;-71
2022/10/13 04:39:42;;;;;;;30.30;18.05;;;;;;;;;;5092919;28;20039;-71
2022/10/13 04:42:08;;;;;;;28.73;17.77;;;;;;;;;;5092050;28;20381;-73
2022/10/13 04:44:34;;;;;;;26.77;17.17;;;;;;;;;;5087865;28;20019;-71
2022/10/13 04:47:00;;;;;;;24.17;15.82;;;;;;;;;;5085244;28;20508;-71
2022/10/13 04:49:26;;;;;;;20.50;15.30;;;;;;;;;;5091166;28;20245;-71
2022/10/13 04:51:52;;;;;;;25.02;15.75;;;;;;;;;;5086086;28;20031;-71
2022/10/13 04:54:18;;;;;;;26.92;16.92;;;;;;;;;;5091392;28;20112;-70
2022/10/13 04:56:45;;;;;;;21.80;15.43;;;;;;;;;;5091964;28;20366;-71
2022/10/13 04:59:11;;;;;;;22.05;15.48;;;;;;;;;;5086512;28;20068;-73
2022/10/13 05:01:37;;;;;;;32.63;17.30;;;;;;;;;;5071877;28;20546;-71
2022/10/13 05:04:04;;;;;;;27.00;17.13;;;;;;;;;;5085380;28;20461;-71
2022/10/13 05:06:31;;;;;;;28.30;17.08;;;;;;;;;;5091200;28;20024;-71
2022/10/13 05:08:57;;;;;;;26.63;15.40;;;;;;;;;;5092721;28;20118;-70
2022/10/13 05:11:25;;;;;;;29.13;17.17;;;;;;;;;;5091287;28;20032;-70
2022/10/13 05:13:51;;;;;;;30.13;17.70;;;;;;;;;;5092047;28;20032;-70
2022/10/13 05:16:18;;;;;;;26.60;17.95;;;;;;;;;;5091191;28;20141;-70
2022/10/13 05:18:44;;;;;;;30.63;17.92;;;;;;;;;;5092321;28;20060;-70
2022/10/13 05:21:10;;;;;;;31.17;19.17;;;;;;;;;;5086359;28;20028;-71
2022/10/13 05:23:36;;;;;;;29.83;17.25;;;;;;;;;;5066690;28;20434;-71
2022/10/13 05:26:03;;;;;;;30.00;17.70;;;;;;;;;;5084725;28;20016;-71
2022/10/13 05:28:29;;;;;;;32.15;18.55;;;;;;;;;;5086898;28;20056;-70
2022/10/13 05:30:55;;;;;;;28.48;18.13;;;;;;;;;;5091718;28;20024;-70
2022/10/13 05:33:22;;;;;;;29.02;18.73;;;;;;;;;;5091206;28;20103;-71
2022/10/13 05:35:48;;;;;;;25.38;17.65;;;;;;;;;;5091214;28;20024;-70
2022/10/13 05:38:14;;;;;;;30.13;17.52;;;;;;;;;;5091143;28;20020;-70
2022/10/13 05:40:39;;;;;;;30.27;18.13;;;;;;;;;;5090997;28;20074;-69
2022/10/13 05:43:05;;;;;;;30.42;16.70;;;;;;;;;;5074158;28;20074;-69
2022/10/13 05:45:32;;;;;;;24.52;16.75;;;;;;;;;;5090118;28;20043;-72
2022/10/13 05:47:58;;;;;;;27.42;17.75;;;;;;;;;;5091633;28;20043;-74
2022/10/13 05:50:24;;;;;;;25.23;18.15;;;;;;;;;;5072287;28;20461;-75
2022/10/13 05:52:50;;;;;;;29.10;18.13;;;;;;;;;;5088714;28;20024;-76
2022/10/13 05:55:17;;;;;;;29.52;19.10;;;;;;;;;;5079019;28;20039;-76
2022/10/13 05:57:44;;;;;;;33.53;18.52;;;;;;;;;;5082821;28;20032;-75
2022/10/13 06:00:11;;;;;;;29.52;17.77;;;;;;;;;;5085337;28;20082;-76
2022/10/13 06:02:40;;;;;;;30.13;18.20;;;;;;;;;;5085308;28;20071;-75
2022/10/13 06:05:10;;;;;;;26.27;15.82;;;;;;;;;;5091750;28;20101;-79
2022/10/13 06:07:36;;;;;;;32.08;17.23;;;;;;;;;;5073575;28;20024;-78
2022/10/13 06:10:02;;;;;;;30.65;18.35;;;;;;;;;;5092000;28;20043;-78
2022/10/13 06:12:28;;;;;;;25.67;16.67;;;;;;;;;;5064583;28;20024;-78
2022/10/13 06:14:54;;;;;;;34.38;16.80;;;;;;;;;;5090900;28;20424;-73
2022/10/13 06:17:20;;;;;;;24.13;16.27;;;;;;;;;;5065830;28;20119;-73
2022/10/13 06:19:46;;;;;;;28.65;15.85;;;;;;;;;;5086416;28;20104;-73
2022/10/13 06:22:12;;;;;;;23.48;15.95;;;;;;;;;;5098907;28;20341;-73
2022/10/13 06:24:38;;;;;;;31.52;16.30;;;;;;;;;;5085294;28;20020;-73
2022/10/13 06:27:04;;;;;;;24.92;15.00;;;;;;;;;;5095083;28;20052;-73
2022/10/13 06:29:32;;;;;;;26.10;15.45;;;;;;;;;;5089391;28;20448;-73
2022/10/13 06:31:58;;;;;;;25.45;14.35;;;;;;;;;;5089222;28;20111;-73
2022/10/13 06:34:24;;;;;;;26.67;14.05;;;;;;;;;;5090601;28;20436;-73
2022/10/13 06:36:50;;;;;;;24.05;16.30;;;;;;;;;;5085285;28;20020;-74
2022/10/13 06:39:16;;;;;;;20.85;13.93;;;;;;;;;;5088211;28;20023;-73
2022/10/13 06:41:42;;;;;;;29.60;15.75;;;;;;;;;;5086967;28;20028;-74
2022/10/13 06:44:08;;;;;;;21.45;13.50;;;;;;;;;;5088080;28;20032;-74
2022/10/13 06:46:34;;;;;;;26.13;14.63;;;;;;;;;;5081803;28;20024;-73
2022/10/13 06:49:00;;;;;;;30.38;15.80;;;;;;;;;;5085897;28;20393;-73
2022/10/13 06:51:26;;;;;;;24.27;15.20;;;;;;;;;;5089957;28;20021;-73
2022/10/13 06:53:52;;;;;;;27.52;14.88;;;;;;;;;;5093243;28;20389;-72
2022/10/13 06:56:18;;;;;;;28.50;15.85;;;;;;;;;;5074205;28;20103;-74
2022/10/13 06:58:44;;;;;;;23.10;15.20;;;;;;;;;;5092283;28;20039;-73
2022/10/13 07:01:11;;;;;;;26.05;16.08;;;;;;;;;;5093404;28;20056;-74
2022/10/13 07:03:37;;;;;;;25.67;15.80;;;;;;;;;;5094802;28;20020;-72
2022/10/13 07:06:04;;;;;;;25.55;14.98;;;;;;;;;;5093577;28;20051;-72
2022/10/13 07:08:31;;;;;;;25.05;15.70;;;;;;;;;;5093600;28;20028;-74
2022/10/13 07:10:57;;;;;;;25.90;14.43;;;;;;;;;;5093779;28;20435;-71
2022/10/13 07:13:23;;;;;;;24.25;14.05;;;;;;;;;;5087069;28;20070;-73
2022/10/13 07:15:49;;;;;;;25.25;14.43;;;;;;;;;;5084563;28;20016;-72
2022/10/13 07:18:15;;;;;;;25.42;14.20;;;;;;;;;;5086315;28;20077;-72
2022/10/13 07:20:41;;;;;;;24.25;13.55;;;;;;;;;;5087139;28;20024;-72
2022/10/13 07:23:07;;;;;;;23.35;12.85;;;;;;;;;;5088452;28;20021;-74
2022/10/13 07:25:33;;;;;;;20.85;13.30;;;;;;;;;;5087732;28;20462;-72
2022/10/13 07:27:59;;;;;;;23.10;12.10;;;;;;;;;;5087375;28;20028;-73
2022/10/13 07:30:26;;;;;;;18.83;11.68;;;;;;;;;;5067612;28;20680;-74
2022/10/13 07:32:52;;;;;;;24.42;13.50;;;;;;;;;;5085859;28;20390;-73
2022/10/13 07:35:18;;;;;;;23.65;13.20;;;;;;;;;;5085620;28;20544;-74
2022/10/13 07:37:44;;;;;;;26.13;14.68;;;;;;;;;;5085616;28;20031;-74
2022/10/13 07:40:10;;;;;;;30.65;14.20;;;;;;;;;;5084010;28;20378;-75
2022/10/13 07:42:36;;;;;;;21.25;11.32;;;;;;;;;;5082298;28;20031;-74
2022/10/13 07:45:02;;;;;;;23.02;13.60;;;;;;;;;;5086179;28;20024;-73
2022/10/13 07:47:29;;;;;;;24.55;13.25;;;;;;;;;;5090477;28;20099;-73
2022/10/13 07:49:55;;;;;;;20.33;12.57;;;;;;;;;;5081585;28;20059;-74
2022/10/13 07:52:24;;;;;;;24.25;12.38;;;;;;;;;;5101016;28;20027;-74
2022/10/13 07:54:50;;;;;;;23.45;13.32;;;;;;;;;;5093866;28;20024;-74
2022/10/13 07:57:16;;;;;;;22.02;12.80;;;;;;;;;;5092013;28;20097;-72
2022/10/13 07:59:42;;;;;;;20.15;11.90;;;;;;;;;;5092967;28;20036;-73
2022/10/13 08:02:09;;;;;;;24.85;13.02;;;;;;;;;;5086206;28;20240;-75
2022/10/13 08:04:35;;;;;;;23.73;12.55;;;;;;;;;;5082979;28;20059;-74
2022/10/13 08:07:02;;;;;;;23.10;12.35;;;;;;;;;;5092944;28;20499;-74
2022/10/13 08:09:28;;;;;;;17.90;11.25;;;;;;;;;;5079932;28;20031;-74
2022/10/13 08:11:54;;;;;;;19.13;10.90;;;;;;;;;;5081346;28;20016;-74
2022/10/13 08:14:20;;;;;;;16.98;10.00;;;;;;;;;;5092527;28;20031;-74
2022/10/13 08:16:46;;;;;;;15.90;10.40;;;;;;;;;;5092241;28;20354;-73
2022/10/13 08:19:13;;;;;;;25.20;12.40;;;;;;;;;;5091200;28;20024;-74
2022/10/13 08:21:39;;;;;;;23.42;11.95;;;;;;;;;;5085702;28;20473;-74
2022/10/13 08:24:12;;;;;;;19.10;11.35;;;;;;;;;;5069497;28;20082;-74
2022/10/13 08:26:38;;;;;;;25.98;11.38;;;;;;;;;;5083325;28;20039;-74
2022/10/13 08:29:05;;;;;;;16.83;10.23;;;;;;;;;;5091520;28;20083;-75
2022/10/13 08:31:31;;;;;;;21.70;11.52;;;;;;;;;;5078867;28;20028;-74
2022/10/13 08:33:57;;;;;;;21.35;11.20;;;;;;;;;;5091806;28;20039;-74
2022/10/13 08:36:23;;;;;;;19.30;11.30;;;;;;;;;;5088225;28;20452;-73
2022/10/13 08:38:51;;;;;;;17.67;10.60;;;;;;;;;;5085435;28;20024;-73
2022/10/13 08:41:19;;;;;;;17.95;10.07;;;;;;;;;;5069842;28;20384;-73
2022/10/13 08:43:48;;;;;;;15.57;8.93;;;;;;;;;;5092540;28;20024;-73
2022/10/13 08:46:15;;;;;;;16.55;8.27;;;;;;;;;;5083445;28;20031;-73
2022/10/13 08:48:42;;;;;;;19.58;9.98;;;;;;;;;;5092177;28;20059;-73
2022/10/13 08:51:08;;;;;;;14.25;9.30;;;;;;;;;;5092013;28;20020;-73
2022/10/13 08:53:36;;;;;;;16.85;8.73;;;;;;;;;;5084009;28;20121;-74
2022/10/13 08:56:18;;;;;;;14.32;9.35;;;;;;;;;;5092207;28;20024;-74
2022/10/13 08:58:44;;;;;;;13.25;8.77;;;;;;;;;;5090736;28;20068;-72
2022/10/13 09:01:12;;;;;;;14.85;9.05;;;;;;;;;;5090878;28;20036;-75
2022/10/13 09:03:48;;;;;;;16.55;8.35;;;;;;;;;;5092246;28;20093;-73
2022/10/13 09:06:17;;;;;;;15.07;7.93;;;;;;;;;;5090891;28;20031;-74
2022/10/13 09:08:53;;;;;;;14.40;8.00;;;;;;;;;;5091981;28;20028;-74
2022/10/13 09:11:19;;;;;;;16.00;7.82;;;;;;;;;;5090675;28;20035;-74
2022/10/13 09:13:45;;;;;;;21.02;7.47;;;;;;;;;;5091406;28;20043;-74
2022/10/13 09:16:11;;;;;;;15.82;7.53;;;;;;;;;;5090699;28;20024;-74
2022/10/13 09:18:37;;;;;;;14.80;8.15;;;;;;;;;;5092107;28;20032;-74
2022/10/13 09:21:18;;;;;;;18.15;7.80;;;;;;;;;;5081503;28;20111;-73
2022/10/13 09:23:44;;;;;;;12.82;6.68;;;;;;;;;;5077920;28;20374;-74
2022/10/13 09:26:19;;;;;;;18.17;7.50;;;16.40;99.90;;;;;;5063785;28;20031;-75
2022/10/13 09:28:45;;;;;;;15.75;7.45;;;16.40;99.90;;;;;;5091298;28;20028;-74
2022/10/13 09:31:23;;;;;;;14.75;7.07;;;16.40;99.90;;;;;;5088172;28;20031;-75
2022/10/13 09:34:01;;;;;;;13.32;7.22;;;16.30;99.90;;;;;;5090575;28;20031;-72
2022/10/13 09:36:30;;;;;;;13.05;6.32;;;16.30;99.90;;;;;;5083285;28;20625;-72
2022/10/13 09:39:13;;;;;;;14.25;7.03;;;16.40;99.90;;;;;;5091240;28;20082;-73
2022/10/13 09:41:41;;;;;;;15.80;6.72;;;16.40;99.90;;;;;;5091644;28;20032;-74
2022/10/13 09:44:26;;;;;;;10.23;6.13;;;16.50;99.90;;;;;;5087954;28;20549;-73
2022/10/13 09:46:58;;;;;;;16.33;6.25;;;16.50;99.90;;;;;;5090426;28;20062;-73
2022/10/13 09:49:38;;;;;;;14.23;6.55;;;16.60;99.90;;;;;;5089875;28;20052;-74
2022/10/13 09:52:10;;;;;;;10.95;6.28;;;16.70;99.90;;;;;;5080041;28;20028;-73
2022/10/13 09:54:55;;;;;;;13.98;6.80;;;16.70;99.90;;;;;;5088672;28;20031;-74
2022/10/13 09:57:45;;;;;;;11.55;6.45;;;16.80;99.90;;;;;;5089788;28;20084;-74
2022/10/13 10:00:23;;;;;;;17.85;5.80;;;17.00;99.90;;;;;;5087636;28;20035;-74
2022/10/13 10:02:49;;;;;;;15.68;6.65;;;17.10;99.90;;;;;;5090277;28;20107;-72
2022/10/13 10:05:28;;;;;;;10.18;6.03;;;17.20;99.90;;;;;;5087804;28;20107;-72
2022/10/13 10:07:59;;;;;;;10.38;6.18;;;17.20;99.90;;;;;;5091521;28;20042;-72
2022/10/13 10:10:30;;;;;;;12.23;6.40;;;17.30;99.90;;;;;;5089879;28;20107;-72
2022/10/13 10:12:56;;;;;;;14.70;6.32;;;17.40;99.90;;;;;;5079670;28;20051;-72
2022/10/13 10:15:29;;;;;;;9.77;5.95;;;17.40;99.90;;;;;;5089712;28;20443;-72
2022/10/13 10:17:59;;;;;;;12.50;6.18;;;17.40;99.90;;;;;;5091139;28;20059;-74
2022/10/13 10:20:48;;;;;;;15.57;7.07;;;17.50;99.90;;;;;;5089483;28;20059;-73
2022/10/13 10:23:21;;;;;;;12.45;6.40;;;17.50;99.90;;;;;;5084074;28;20052;-74
2022/10/13 10:26:14;;;;;;;11.25;5.28;;;17.40;99.90;;;;;;5083629;28;20115;-73
2022/10/13 10:29:09;;;;;;;10.55;6.70;;;17.40;99.90;;;;;;5090945;28;20024;-73
2022/10/13 10:32:00;;;;;;;12.05;5.95;;;17.40;99.90;;;;;;5085983;28;20040;-73
2022/10/13 10:34:37;;;;;;;9.32;4.85;;;17.30;99.90;;;;;;5083434;28;20513;-77
2022/10/13 10:37:21;;;;;;;10.35;4.95;;;17.30;99.90;;;;;;5090607;28;20063;-72
2022/10/13 10:40:05;;;;;;;7.53;4.85;;;17.20;99.90;;;;;;5086937;28;20031;-78
2022/10/13 10:43:00;;;;;;;12.23;5.50;;;17.20;99.90;;;;;;5089517;28;20042;-73
2022/10/13 10:45:34;;;;;;;14.20;5.60;;;17.30;99.90;;;;;;5089620;28;20865;-73
2022/10/13 10:48:08;;;;;;;9.35;5.10;;;17.30;99.90;;;;;;5090753;28;20094;-73
2022/10/13 10:50:34;;;;;;;14.60;6.22;;;17.20;99.90;;;;;;5079856;28;20024;-71
2022/10/13 10:53:05;;;;;;;6.80;4.63;;;17.20;99.90;;;;;;5084239;28;20470;-72
2022/10/13 10:55:42;;;;;;;10.85;5.15;;;17.20;99.90;;;;;;5088902;28;20133;-73
2022/10/13 10:58:37;;;;;;;10.25;4.57;;;17.30;99.90;;;;;;5090647;28;20074;-73
2022/10/13 11:01:20;;;;;;;11.07;4.72;;;17.30;99.90;;;;;;5073352;28;20035;-73
2022/10/13 11:04:00;;;;;;;13.52;6.40;;;17.40;99.90;;;;;;5063585;28;20469;-73
2022/10/13 11:06:35;;;;;;;9.63;5.53;;;17.40;99.90;;;;;;5089224;28;20028;-73
2022/10/13 11:09:01;;;;;;;10.80;5.20;;;17.40;99.90;;;;;;5090885;28;20025;-73
2022/10/13 11:11:31;;;;;;;12.27;4.93;;;17.50;99.90;;;;;;5089085;28;20020;-72
2022/10/13 11:14:05;;;;;;;16.45;4.63;;;17.50;99.90;;;;;;5090822;28;20036;-73
2022/10/13 11:17:00;;;;;;;15.93;5.40;;;17.60;99.90;;;;;;5088871;28;20060;-79
2022/10/13 11:19:33;;;;;;;9.25;4.70;;;17.60;99.90;;;;;;5082189;28;20031;-79
2022/10/13 11:21:58;;;;;;;10.25;5.15;;;17.60;99.90;;;;;;5086660;28;20096;-77
2022/10/13 11:24:33;;;;;;;10.85;5.45;;;17.70;99.90;;;;;;5088346;28;20100;-77
2022/10/13 11:27:09;;;;;;;10.88;5.03;;;17.70;99.90;;;;;;5090048;28;20109;-78
2022/10/13 11:29:47;;;;;;;14.13;5.78;;;17.80;99.90;;;;;;5090616;28;20034;-77
2022/10/13 11:35:04;;;;;;;44.58;6.57;;;17.90;99.90;;;;;;5083714;28;20054;-79
2022/10/13 11:37:57;;;;;;;13.95;5.15;;;17.90;99.90;;;;;;5095402;28;20044;-80
2022/10/13 11:40:34;;;;;;;11.30;5.05;;;17.90;99.90;;;;;;5094141;28;20060;-77
2022/10/13 11:43:08;;;;;;;15.18;4.82;;;17.90;99.90;;;;;;5091200;28;20054;-78
2022/10/13 11:45:47;;;;;;;8.50;5.20;;;17.90;99.90;;;;;;5093292;28;20028;-78
2022/10/13 11:48:44;;;;;;;6.80;4.38;;;18.00;99.90;;;;;;5074886;28;20496;-78
2022/10/13 11:51:13;;;;;;;12.13;4.80;;;18.10;99.90;;;;;;5092446;28;20036;-77
2022/10/13 11:54:05;;;;;;;9.68;4.75;;;18.20;99.90;;;;;;5090961;28;20020;-78
2022/10/13 11:56:43;;;;;;;26.83;6.05;;;18.30;99.90;;;;;;5087073;28;20021;-78
2022/10/13 11:59:23;;;;;;;10.30;4.38;;;18.40;99.90;;;;;;5090857;28;20108;-77
2022/10/13 12:02:10;;;;;;;8.00;4.30;;;18.50;99.90;;;;;;5090804;28;20032;-77
2022/10/13 12:04:40;;;;;;;12.05;4.55;;;18.60;99.90;;;;;;5076415;28;20117;-78
2022/10/13 12:07:13;;;;;;;9.38;4.25;;;18.80;99.90;;;;;;5083120;28;20028;-79
2022/10/13 12:09:50;;;;;;;12.25;5.07;;;19.00;99.90;;;;;;5092208;28;20081;-78
2022/10/13 12:12:19;;;;;;;15.60;5.53;;;19.10;99.90;;;;;;5074416;28;20024;-79
2022/10/13 12:14:49;;;;;;;8.32;4.55;;;19.20;99.90;;;;;;5093425;28;20038;-79
2022/10/13 12:17:37;;;;;;;11.85;5.60;;;19.20;99.90;;;;;;5093660;28;20030;-76
2022/10/13 12:20:25;;;;;;;11.90;4.85;;;19.30;99.90;;;;;;5090740;28;20028;-78
2022/10/13 12:22:52;;;;;;;14.35;4.75;;;19.30;99.90;;;;;;5090025;28;20075;-79
2022/10/13 12:25:21;;;;;;;9.65;4.18;;;19.30;99.90;;;;;;5088862;28;20024;-78
2022/10/13 12:27:53;;;;;;;7.80;4.00;;;19.30;99.90;;;;;;5093383;28;20024;-78
2022/10/13 12:30:35;;;;;;;10.50;4.32;;;19.30;99.90;;;;;;5091925;28;20463;-78
2022/10/13 12:33:01;;;;;;;7.40;4.20;;;19.30;99.90;;;;;;5090719;28;20028;-78
2022/10/13 12:35:32;;;;;;;9.43;4.50;;;19.50;99.90;;;;;;5089059;28;20706;-78
2022/10/13 12:38:01;;;;;;;7.18;4.05;;;19.60;99.90;;;;;;5093049;28;20473;-78
2022/10/13 12:40:28;;;;;;;17.70;5.10;;;19.80;99.90;;;;;;5060191;28;20035;-78
2022/10/13 12:42:54;;;;;;;5.65;3.63;;;19.80;99.90;;;;;;5093195;28;20039;-79
2022/10/13 12:45:22;;;;;;;7.90;3.60;;;19.90;99.90;;;;;;5090907;28;20039;-78
2022/10/13 12:47:50;;;;;;;11.30;3.67;;;20.20;99.90;;;;;;5091850;28;20031;-76
2022/10/13 12:50:28;;;;;;;4.75;3.10;;;20.40;99.90;;;;;;5091751;28;20040;-77
2022/10/13 12:53:28;;;;;;;9.77;3.30;;;20.70;99.90;;;;;;5068285;28;20031;-77
2022/10/13 12:55:59;;;;;;;12.82;4.30;;;20.90;99.90;;;;;;5093110;28;20036;-78
2022/10/13 12:58:30;;;;;;;7.20;3.55;;;21.00;99.90;;;;;;5091771;28;20034;-77
2022/10/13 13:01:12;;;;;;;8.43;4.32;;;20.90;99.90;;;;;;5085195;28;20486;-77
2022/10/13 13:03:39;;;;;;;6.68;3.40;;;20.80;99.90;;;;;;5097712;28;20028;-77
2022/10/13 13:06:12;;;;;;;10.48;3.88;;;20.70;99.90;;;;;;5088086;28;20035;-78
2022/10/13 13:08:40;;;;;;;8.32;3.55;;;20.60;99.90;;;;;;5092235;28;20058;-78
2022/10/13 13:11:22;;;;;;;14.77;4.70;;;20.50;99.90;;;;;;5092041;28;20031;-78
2022/10/13 13:13:48;;;;;;;10.98;4.07;;;20.30;99.90;;;;;;5092160;28;20024;-77
2022/10/13 13:16:18;;;;;;;13.65;4.05;;;20.20;99.90;;;;;;5090004;28;20078;-77
2022/10/13 13:18:46;;;;;;;12.68;4.32;;;20.00;99.90;;;;;;5092421;28;20032;-78
2022/10/13 13:21:14;;;;;;;8.93;4.43;;;20.00;99.90;;;;;;5091195;28;20028;-77
2022/10/13 13:23:41;;;;;;;13.20;4.40;;;19.80;99.90;;;;;;5092307;28;20020;-78
2022/10/13 13:26:12;;;;;;;11.48;4.32;;;19.70;99.90;;;;;;5091650;28;20400;-78
2022/10/13 13:28:52;;;;;;;8.82;4.03;;;19.60;99.90;;;;;;5086637;28;20032;-78
2022/10/13 13:31:19;;;;;;;9.38;4.40;;;19.50;99.90;;;;;;5091345;28;20504;-78
2022/10/13 13:33:46;;;;;;;11.60;5.15;;;19.50;99.90;;;;;;5088001;28;20024;-78
2022/10/13 13:36:14;;;;;;;9.57;4.57;;;19.50;99.90;;;;;;5091104;28;20070;-76
2022/10/13 13:38:43;;;;;;;11.27;5.72;;;19.50;99.90;;;;;;5091906;28;20028;-78
2022/10/13 13:41:10;;;;;;;7.70;5.00;;;19.40;99.90;;;;;;5091087;28;20032;-76
2022/10/13 13:43:36;;;;;;;10.27;4.65;;;19.40;99.90;;;;;;5091640;28;20203;-78
2022/10/13 13:46:04;;;;;;;14.65;5.07;;;19.40;99.90;;;;;;5091387;28;20099;-79
2022/10/13 13:48:29;;;;;;;21.83;5.57;;;19.30;99.90;;;;;;5072494;28;20047;-77
2022/10/13 13:50:55;;;;;;;10.60;4.80;;;19.20;99.90;;;;;;5068903;28;20090;-78
2022/10/13 13:53:21;;;;;;;10.63;4.60;;;19.10;99.90;;;;;;5068990;28;20027;-78
2022/10/13 13:55:46;;;;;;;9.90;4.22;;;19.00;99.90;;;;;;5090154;28;20430;-78
2022/10/13 13:58:12;;;;;;;13.80;5.25;;;18.90;99.90;;;;;;5078166;28;20024;-77
2022/10/13 14:00:37;;;;;;;11.43;5.22;;;18.80;99.90;;;;;;5091485;28;20438;-77